sensor_id;sensor_type;location;lat;lon;timestamp;P1;durP1;ratioP1;P2;durP2;ratioP2
8480;SDS011;4277;51.354;6.740;2022-08-19T00:01:29;7.88;;;6.90;;
8480;SDS011;4277;51.354;6.740;2022-08-19T00:03:59;6.47;;;5.88;;
8480;SDS011;4277;51.354;6.740;2022-08-19T00:06:26;6.70;;;6.10;;
8480;SDS011;4277;51.354;6.740;2022-08-19T00:08:52;7.47;;;6.32;;
8480;SDS011;4277;51.354;6.740;2022-08-19T00:11:18;6.55;;;5.93;;
8480;SDS011;4277;51.354;6.740;2022-08-19T00:13:44;6.80;;;6.30;;
8480;SDS011;4277;51.354;6.740;2022-08-19T00:16:13;7.28;;;6.47;;
8480;SDS011;4277;51.354;6.740;2022-08-19T00:18:39;7.47;;;6.53;;
8480;SDS011;4277;51.354;6.740;2022-08-19T00:21:05;7.10;;;6.40;;
8480;SDS011;4277;51.354;6.740;2022-08-19T00:23:33;7.38;;;6.68;;
8480;SDS011;4277;51.354;6.740;2022-08-19T00:26:01;7.45;;;6.75;;
8480;SDS011;4277;51.354;6.740;2022-08-19T00:28:27;7.95;;;7.25;;
8480;SDS011;4277;51.354;6.740;2022-08-19T00:30:53;7.60;;;6.90;;
8480;SDS011;4277;51.354;6.740;2022-08-19T00:33:19;7.55;;;6.95;;
8480;SDS011;4277;51.354;6.740;2022-08-19T00:35:45;7.60;;;6.90;;
8480;SDS011;4277;51.354;6.740;2022-08-19T00:38:11;7.20;;;6.50;;
8480;SDS011;4277;51.354;6.740;2022-08-19T00:40:37;7.45;;;6.78;;
8480;SDS011;4277;51.354;6.740;2022-08-19T00:43:07;7.07;;;6.10;;
8480;SDS011;4277;51.354;6.740;2022-08-19T00:45:33;7.95;;;6.65;;
8480;SDS011;4277;51.354;6.740;2022-08-19T00:48:00;7.05;;;6.45;;
8480;SDS011;4277;51.354;6.740;2022-08-19T00:50:29;8.05;;;7.35;;
8480;SDS011;4277;51.354;6.740;2022-08-19T00:52:55;7.22;;;6.50;;
8480;SDS011;4277;51.354;6.740;2022-08-19T00:55:24;8.10;;;6.85;;
8480;SDS011;4277;51.354;6.740;2022-08-19T00:57:53;7.75;;;6.90;;
8480;SDS011;4277;51.354;6.740;2022-08-19T01:00:21;6.75;;;6.15;;
8480;SDS011;4277;51.354;6.740;2022-08-19T01:02:47;6.93;;;6.35;;
8480;SDS011;4277;51.354;6.740;2022-08-19T01:05:18;7.78;;;6.25;;
8480;SDS011;4277;51.354;6.740;2022-08-19T01:07:46;10.00;;;7.00;;
8480;SDS011;4277;51.354;6.740;2022-08-19T01:10:14;7.38;;;6.43;;
8480;SDS011;4277;51.354;6.740;2022-08-19T01:12:41;7.55;;;6.35;;
8480;SDS011;4277;51.354;6.740;2022-08-19T01:15:08;7.22;;;6.55;;
8480;SDS011;4277;51.354;6.740;2022-08-19T01:17:35;6.55;;;6.05;;
8480;SDS011;4277;51.354;6.740;2022-08-19T01:20:02;6.90;;;6.30;;
8480;SDS011;4277;51.354;6.740;2022-08-19T01:22:32;6.30;;;5.80;;
8480;SDS011;4277;51.354;6.740;2022-08-19T01:25:01;7.07;;;6.38;;
8480;SDS011;4277;51.354;6.740;2022-08-19T01:27:28;7.20;;;6.50;;
8480;SDS011;4277;51.354;6.740;2022-08-19T01:30:02;7.13;;;6.53;;
8480;SDS011;4277;51.354;6.740;2022-08-19T01:32:28;7.63;;;6.55;;
8480;SDS011;4277;51.354;6.740;2022-08-19T01:34:55;7.70;;;6.97;;
8480;SDS011;4277;51.354;6.740;2022-08-19T01:37:21;7.50;;;6.80;;
8480;SDS011;4277;51.354;6.740;2022-08-19T01:39:47;7.38;;;6.68;;
8480;SDS011;4277;51.354;6.740;2022-08-19T01:42:13;7.50;;;6.80;;
8480;SDS011;4277;51.354;6.740;2022-08-19T01:44:39;8.15;;;7.45;;
8480;SDS011;4277;51.354;6.740;2022-08-19T01:47:08;7.65;;;6.85;;
8480;SDS011;4277;51.354;6.740;2022-08-19T01:49:34;8.18;;;7.47;;
8480;SDS011;4277;51.354;6.740;2022-08-19T01:52:00;8.80;;;8.07;;
8480;SDS011;4277;51.354;6.740;2022-08-19T01:54:27;8.65;;;7.75;;
8480;SDS011;4277;51.354;6.740;2022-08-19T01:56:55;9.23;;;7.65;;
8480;SDS011;4277;51.354;6.740;2022-08-19T01:59:23;7.03;;;6.43;;
8480;SDS011;4277;51.354;6.740;2022-08-19T02:01:49;7.63;;;6.93;;
8480;SDS011;4277;51.354;6.740;2022-08-19T02:04:15;8.60;;;7.40;;
8480;SDS011;4277;51.354;6.740;2022-08-19T02:06:41;8.27;;;7.47;;
8480;SDS011;4277;51.354;6.740;2022-08-19T02:09:08;8.65;;;7.70;;
8480;SDS011;4277;51.354;6.740;2022-08-19T02:11:34;8.10;;;7.30;;
8480;SDS011;4277;51.354;6.740;2022-08-19T02:14:02;7.95;;;7.30;;
8480;SDS011;4277;51.354;6.740;2022-08-19T02:16:29;9.05;;;8.15;;
8480;SDS011;4277;51.354;6.740;2022-08-19T02:18:55;9.63;;;8.63;;
8480;SDS011;4277;51.354;6.740;2022-08-19T02:21:22;9.30;;;8.50;;
8480;SDS011;4277;51.354;6.740;2022-08-19T02:23:48;9.55;;;8.43;;
8480;SDS011;4277;51.354;6.740;2022-08-19T02:26:15;9.15;;;8.35;;
8480;SDS011;4277;51.354;6.740;2022-08-19T02:28:41;9.30;;;8.50;;
8480;SDS011;4277;51.354;6.740;2022-08-19T02:31:14;9.15;;;8.45;;
8480;SDS011;4277;51.354;6.740;2022-08-19T02:33:41;9.27;;;8.57;;
8480;SDS011;4277;51.354;6.740;2022-08-19T02:36:07;9.98;;;8.93;;
8480;SDS011;4277;51.354;6.740;2022-08-19T02:38:33;10.30;;;9.40;;
8480;SDS011;4277;51.354;6.740;2022-08-19T02:41:04;9.57;;;8.63;;
8480;SDS011;4277;51.354;6.740;2022-08-19T02:43:31;9.10;;;8.20;;
8480;SDS011;4277;51.354;6.740;2022-08-19T02:45:57;9.25;;;8.35;;
8480;SDS011;4277;51.354;6.740;2022-08-19T02:48:24;9.48;;;8.60;;
8480;SDS011;4277;51.354;6.740;2022-08-19T02:50:51;9.35;;;8.55;;
8480;SDS011;4277;51.354;6.740;2022-08-19T02:53:23;8.80;;;8.00;;
8480;SDS011;4277;51.354;6.740;2022-08-19T02:55:50;9.55;;;8.18;;
8480;SDS011;4277;51.354;6.740;2022-08-19T02:58:16;9.40;;;8.48;;
8480;SDS011;4277;51.354;6.740;2022-08-19T03:00:47;9.32;;;8.43;;
8480;SDS011;4277;51.354;6.740;2022-08-19T03:03:14;9.40;;;8.57;;
8480;SDS011;4277;51.354;6.740;2022-08-19T03:05:40;9.55;;;8.65;;
8480;SDS011;4277;51.354;6.740;2022-08-19T03:08:07;9.25;;;8.45;;
8480;SDS011;4277;51.354;6.740;2022-08-19T03:10:39;10.18;;;8.82;;
8480;SDS011;4277;51.354;6.740;2022-08-19T03:13:07;9.48;;;8.60;;
8480;SDS011;4277;51.354;6.740;2022-08-19T03:15:33;9.77;;;8.85;;
8480;SDS011;4277;51.354;6.740;2022-08-19T03:17:59;9.38;;;8.57;;
8480;SDS011;4277;51.354;6.740;2022-08-19T03:20:25;9.65;;;8.75;;
8480;SDS011;4277;51.354;6.740;2022-08-19T03:22:51;9.77;;;8.88;;
8480;SDS011;4277;51.354;6.740;2022-08-19T03:25:17;11.10;;;9.35;;
8480;SDS011;4277;51.354;6.740;2022-08-19T03:27:43;9.88;;;9.00;;
8480;SDS011;4277;51.354;6.740;2022-08-19T03:30:09;10.38;;;9.25;;
8480;SDS011;4277;51.354;6.740;2022-08-19T03:32:35;11.15;;;9.48;;
8480;SDS011;4277;51.354;6.740;2022-08-19T03:35:02;9.90;;;8.82;;
8480;SDS011;4277;51.354;6.740;2022-08-19T03:37:28;9.40;;;8.60;;
8480;SDS011;4277;51.354;6.740;2022-08-19T03:39:54;10.23;;;9.15;;
8480;SDS011;4277;51.354;6.740;2022-08-19T03:42:20;9.98;;;9.07;;
8480;SDS011;4277;51.354;6.740;2022-08-19T03:44:46;10.75;;;9.70;;
8480;SDS011;4277;51.354;6.740;2022-08-19T03:47:12;11.02;;;9.20;;
8480;SDS011;4277;51.354;6.740;2022-08-19T03:49:41;11.88;;;10.18;;
8480;SDS011;4277;51.354;6.740;2022-08-19T03:52:07;11.38;;;9.70;;
8480;SDS011;4277;51.354;6.740;2022-08-19T03:54:33;11.85;;;10.75;;
8480;SDS011;4277;51.354;6.740;2022-08-19T03:57:00;13.00;;;10.35;;
8480;SDS011;4277;51.354;6.740;2022-08-19T03:59:28;11.98;;;10.77;;
8480;SDS011;4277;51.354;6.740;2022-08-19T04:01:55;12.05;;;10.80;;
8480;SDS011;4277;51.354;6.740;2022-08-19T04:04:21;12.45;;;11.35;;
8480;SDS011;4277;51.354;6.740;2022-08-19T04:06:47;13.40;;;12.20;;
8480;SDS011;4277;51.354;6.740;2022-08-19T04:09:13;12.77;;;11.65;;
8480;SDS011;4277;51.354;6.740;2022-08-19T04:11:40;13.63;;;12.23;;
8480;SDS011;4277;51.354;6.740;2022-08-19T04:14:06;14.35;;;12.85;;
8480;SDS011;4277;51.354;6.740;2022-08-19T04:16:33;13.57;;;12.18;;
8480;SDS011;4277;51.354;6.740;2022-08-19T04:18:59;13.02;;;11.73;;
8480;SDS011;4277;51.354;6.740;2022-08-19T04:21:26;12.98;;;11.85;;
8480;SDS011;4277;51.354;6.740;2022-08-19T04:23:52;14.35;;;12.90;;
8480;SDS011;4277;51.354;6.740;2022-08-19T04:26:20;13.57;;;12.38;;
8480;SDS011;4277;51.354;6.740;2022-08-19T04:28:46;13.60;;;12.30;;
8480;SDS011;4277;51.354;6.740;2022-08-19T04:31:13;14.23;;;11.63;;
8480;SDS011;4277;51.354;6.740;2022-08-19T04:33:40;13.63;;;12.23;;
8480;SDS011;4277;51.354;6.740;2022-08-19T04:36:06;13.85;;;12.55;;
8480;SDS011;4277;51.354;6.740;2022-08-19T04:38:32;15.02;;;13.15;;
8480;SDS011;4277;51.354;6.740;2022-08-19T04:40:58;14.23;;;12.93;;
8480;SDS011;4277;51.354;6.740;2022-08-19T04:43:44;14.98;;;13.48;;
8480;SDS011;4277;51.354;6.740;2022-08-19T04:46:13;15.07;;;13.55;;
8480;SDS011;4277;51.354;6.740;2022-08-19T04:48:39;15.48;;;13.80;;
8480;SDS011;4277;51.354;6.740;2022-08-19T04:51:07;14.60;;;13.30;;
8480;SDS011;4277;51.354;6.740;2022-08-19T04:53:34;14.75;;;13.32;;
8480;SDS011;4277;51.354;6.740;2022-08-19T04:56:04;15.18;;;13.68;;
8480;SDS011;4277;51.354;6.740;2022-08-19T04:58:32;14.75;;;13.23;;
8480;SDS011;4277;51.354;6.740;2022-08-19T05:00:58;14.70;;;13.23;;
8480;SDS011;4277;51.354;6.740;2022-08-19T05:03:27;15.20;;;13.07;;
8480;SDS011;4277;51.354;6.740;2022-08-19T05:05:58;14.65;;;13.25;;
8480;SDS011;4277;51.354;6.740;2022-08-19T05:08:24;14.20;;;12.80;;
8480;SDS011;4277;51.354;6.740;2022-08-19T05:10:51;15.32;;;13.77;;
8480;SDS011;4277;51.354;6.740;2022-08-19T05:13:18;14.68;;;13.38;;
8480;SDS011;4277;51.354;6.740;2022-08-19T05:15:52;14.77;;;13.43;;
8480;SDS011;4277;51.354;6.740;2022-08-19T05:18:19;16.25;;;13.90;;
8480;SDS011;4277;51.354;6.740;2022-08-19T05:21:11;15.75;;;14.25;;
8480;SDS011;4277;51.354;6.740;2022-08-19T05:23:56;16.65;;;14.80;;
8480;SDS011;4277;51.354;6.740;2022-08-19T05:26:22;15.40;;;13.85;;
8480;SDS011;4277;51.354;6.740;2022-08-19T05:28:51;16.67;;;15.05;;
8480;SDS011;4277;51.354;6.740;2022-08-19T05:31:16;15.88;;;14.27;;
8480;SDS011;4277;51.354;6.740;2022-08-19T05:33:43;18.77;;;15.73;;
8480;SDS011;4277;51.354;6.740;2022-08-19T05:36:09;19.48;;;17.67;;
8480;SDS011;4277;51.354;6.740;2022-08-19T05:38:35;20.42;;;18.23;;
8480;SDS011;4277;51.354;6.740;2022-08-19T05:41:08;18.52;;;16.63;;
8480;SDS011;4277;51.354;6.740;2022-08-19T05:43:34;19.60;;;17.60;;
8480;SDS011;4277;51.354;6.740;2022-08-19T05:46:01;21.00;;;18.92;;
8480;SDS011;4277;51.354;6.740;2022-08-19T05:48:27;24.73;;;22.02;;
8480;SDS011;4277;51.354;6.740;2022-08-19T05:50:53;31.50;;;28.30;;
8480;SDS011;4277;51.354;6.740;2022-08-19T05:53:19;34.40;;;29.75;;
8480;SDS011;4277;51.354;6.740;2022-08-19T05:55:45;34.45;;;30.27;;
8480;SDS011;4277;51.354;6.740;2022-08-19T05:58:11;35.72;;;32.05;;
8480;SDS011;4277;51.354;6.740;2022-08-19T06:00:37;30.75;;;27.58;;
8480;SDS011;4277;51.354;6.740;2022-08-19T06:03:05;28.73;;;25.83;;
8480;SDS011;4277;51.354;6.740;2022-08-19T06:05:31;31.00;;;25.63;;
8480;SDS011;4277;51.354;6.740;2022-08-19T06:07:57;35.00;;;31.02;;
8480;SDS011;4277;51.354;6.740;2022-08-19T06:10:24;39.88;;;35.60;;
8480;SDS011;4277;51.354;6.740;2022-08-19T06:12:51;40.45;;;36.25;;
8480;SDS011;4277;51.354;6.740;2022-08-19T06:15:17;41.22;;;36.75;;
8480;SDS011;4277;51.354;6.740;2022-08-19T06:17:43;45.05;;;40.00;;
8480;SDS011;4277;51.354;6.740;2022-08-19T06:20:11;47.08;;;39.97;;
8480;SDS011;4277;51.354;6.740;2022-08-19T06:22:39;48.08;;;42.90;;
8480;SDS011;4277;51.354;6.740;2022-08-19T06:25:05;49.33;;;41.45;;
8480;SDS011;4277;51.354;6.740;2022-08-19T06:27:31;47.05;;;42.00;;
8480;SDS011;4277;51.354;6.740;2022-08-19T06:29:58;42.17;;;37.83;;
8480;SDS011;4277;51.354;6.740;2022-08-19T06:32:24;51.47;;;45.63;;
8480;SDS011;4277;51.354;6.740;2022-08-19T06:34:50;49.00;;;43.83;;
8480;SDS011;4277;51.354;6.740;2022-08-19T06:37:15;49.13;;;44.08;;
8480;SDS011;4277;51.354;6.740;2022-08-19T06:39:42;50.15;;;44.78;;
8480;SDS011;4277;51.354;6.740;2022-08-19T06:42:09;52.22;;;45.15;;
8480;SDS011;4277;51.354;6.740;2022-08-19T06:44:39;49.83;;;44.58;;
8480;SDS011;4277;51.354;6.740;2022-08-19T06:47:06;49.42;;;44.05;;
8480;SDS011;4277;51.354;6.740;2022-08-19T06:49:33;49.50;;;44.33;;
8480;SDS011;4277;51.354;6.740;2022-08-19T06:52:00;47.72;;;42.00;;
8480;SDS011;4277;51.354;6.740;2022-08-19T06:54:27;49.53;;;44.22;;
8480;SDS011;4277;51.354;6.740;2022-08-19T06:56:54;48.67;;;43.38;;
8480;SDS011;4277;51.354;6.740;2022-08-19T06:59:22;47.45;;;39.28;;
8480;SDS011;4277;51.354;6.740;2022-08-19T07:01:53;45.28;;;40.13;;
8480;SDS011;4277;51.354;6.740;2022-08-19T07:04:22;42.13;;;37.63;;
8480;SDS011;4277;51.354;6.740;2022-08-19T07:06:50;41.58;;;37.17;;
8480;SDS011;4277;51.354;6.740;2022-08-19T07:09:26;39.75;;;35.45;;
8480;SDS011;4277;51.354;6.740;2022-08-19T07:11:52;42.47;;;37.58;;
8480;SDS011;4277;51.354;6.740;2022-08-19T07:14:35;46.53;;;38.53;;
8480;SDS011;4277;51.354;6.740;2022-08-19T07:17:03;41.20;;;36.90;;
8480;SDS011;4277;51.354;6.740;2022-08-19T07:19:31;40.10;;;35.90;;
8480;SDS011;4277;51.354;6.740;2022-08-19T07:21:56;40.95;;;35.22;;
8480;SDS011;4277;51.354;6.740;2022-08-19T07:24:26;36.47;;;32.60;;
8480;SDS011;4277;51.354;6.740;2022-08-19T07:26:53;36.65;;;32.83;;
8480;SDS011;4277;51.354;6.740;2022-08-19T07:29:22;30.25;;;26.80;;
8480;SDS011;4277;51.354;6.740;2022-08-19T07:31:52;27.58;;;24.02;;
8480;SDS011;4277;51.354;6.740;2022-08-19T07:34:21;23.60;;;21.13;;
8480;SDS011;4277;51.354;6.740;2022-08-19T07:36:48;24.67;;;22.17;;
8480;SDS011;4277;51.354;6.740;2022-08-19T07:39:22;23.70;;;21.27;;
8480;SDS011;4277;51.354;6.740;2022-08-19T07:41:49;25.25;;;21.50;;
8480;SDS011;4277;51.354;6.740;2022-08-19T07:44:15;22.60;;;20.20;;
8480;SDS011;4277;51.354;6.740;2022-08-19T07:46:43;23.58;;;20.15;;
8480;SDS011;4277;51.354;6.740;2022-08-19T07:49:11;21.48;;;18.95;;
8480;SDS011;4277;51.354;6.740;2022-08-19T07:51:43;22.25;;;19.15;;
8480;SDS011;4277;51.354;6.740;2022-08-19T07:54:10;23.23;;;20.80;;
8480;SDS011;4277;51.354;6.740;2022-08-19T07:56:36;23.85;;;21.40;;
8480;SDS011;4277;51.354;6.740;2022-08-19T07:59:02;24.70;;;21.98;;
8480;SDS011;4277;51.354;6.740;2022-08-19T08:01:28;23.52;;;21.13;;
8480;SDS011;4277;51.354;6.740;2022-08-19T08:03:54;23.40;;;20.75;;
8480;SDS011;4277;51.354;6.740;2022-08-19T08:06:52;21.48;;;19.05;;
8480;SDS011;4277;51.354;6.740;2022-08-19T08:09:49;23.15;;;20.77;;
8480;SDS011;4277;51.354;6.740;2022-08-19T08:12:18;23.63;;;21.23;;
8480;SDS011;4277;51.354;6.740;2022-08-19T08:14:54;26.17;;;20.90;;
8480;SDS011;4277;51.354;6.740;2022-08-19T08:17:24;25.40;;;22.50;;
8480;SDS011;4277;51.354;6.740;2022-08-19T08:19:51;25.88;;;22.55;;
8480;SDS011;4277;51.354;6.740;2022-08-19T08:22:17;24.95;;;22.08;;
8480;SDS011;4277;51.354;6.740;2022-08-19T08:25:14;24.40;;;21.13;;
8480;SDS011;4277;51.354;6.740;2022-08-19T08:27:42;23.23;;;20.73;;
8480;SDS011;4277;51.354;6.740;2022-08-19T08:30:10;25.48;;;22.77;;
8480;SDS011;4277;51.354;6.740;2022-08-19T08:32:44;27.70;;;24.63;;
8480;SDS011;4277;51.354;6.740;2022-08-19T08:35:11;29.20;;;26.15;;
8480;SDS011;4277;51.354;6.740;2022-08-19T08:37:39;29.20;;;25.90;;
8480;SDS011;4277;51.354;6.740;2022-08-19T08:40:06;27.85;;;24.90;;
8480;SDS011;4277;51.354;6.740;2022-08-19T08:42:45;27.65;;;24.95;;
8480;SDS011;4277;51.354;6.740;2022-08-19T08:45:35;30.02;;;26.27;;
8480;SDS011;4277;51.354;6.740;2022-08-19T08:48:11;25.73;;;22.92;;
8480;SDS011;4277;51.354;6.740;2022-08-19T08:50:47;21.98;;;19.13;;
8480;SDS011;4277;51.354;6.740;2022-08-19T08:53:18;21.33;;;19.13;;
8480;SDS011;4277;51.354;6.740;2022-08-19T08:55:44;24.85;;;22.40;;
8480;SDS011;4277;51.354;6.740;2022-08-19T08:58:13;23.90;;;21.35;;
8480;SDS011;4277;51.354;6.740;2022-08-19T09:00:46;30.23;;;25.65;;
8480;SDS011;4277;51.354;6.740;2022-08-19T09:03:20;25.80;;;23.08;;
8480;SDS011;4277;51.354;6.740;2022-08-19T09:08:43;23.35;;;20.08;;
8480;SDS011;4277;51.354;6.740;2022-08-19T09:11:15;24.40;;;18.95;;
8480;SDS011;4277;51.354;6.740;2022-08-19T09:16:57;24.90;;;22.25;;
8480;SDS011;4277;51.354;6.740;2022-08-19T09:19:24;25.17;;;22.55;;
8480;SDS011;4277;51.354;6.740;2022-08-19T09:21:50;24.63;;;22.05;;
8480;SDS011;4277;51.354;6.740;2022-08-19T09:24:15;28.08;;;25.02;;
8480;SDS011;4277;51.354;6.740;2022-08-19T09:26:41;28.70;;;22.90;;
8480;SDS011;4277;51.354;6.740;2022-08-19T09:29:08;26.52;;;23.30;;
8480;SDS011;4277;51.354;6.740;2022-08-19T09:31:35;30.40;;;25.52;;
8480;SDS011;4277;51.354;6.740;2022-08-19T09:34:01;27.80;;;24.90;;
8480;SDS011;4277;51.354;6.740;2022-08-19T09:36:29;29.13;;;26.02;;
8480;SDS011;4277;51.354;6.740;2022-08-19T09:38:57;30.58;;;25.80;;
8480;SDS011;4277;51.354;6.740;2022-08-19T09:41:25;27.58;;;21.60;;
8480;SDS011;4277;51.354;6.740;2022-08-19T09:43:52;23.30;;;20.80;;
8480;SDS011;4277;51.354;6.740;2022-08-19T09:46:21;22.17;;;19.95;;
8480;SDS011;4277;51.354;6.740;2022-08-19T09:48:48;25.48;;;22.88;;
8480;SDS011;4277;51.354;6.740;2022-08-19T09:51:16;22.40;;;19.48;;
8480;SDS011;4277;51.354;6.740;2022-08-19T09:53:44;22.55;;;20.25;;
8480;SDS011;4277;51.354;6.740;2022-08-19T09:56:12;20.75;;;18.60;;
8480;SDS011;4277;51.354;6.740;2022-08-19T09:58:38;20.20;;;18.20;;
8480;SDS011;4277;51.354;6.740;2022-08-19T10:01:06;21.08;;;18.95;;
8480;SDS011;4277;51.354;6.740;2022-08-19T10:03:33;19.80;;;17.80;;
8480;SDS011;4277;51.354;6.740;2022-08-19T10:05:59;20.33;;;17.63;;
8480;SDS011;4277;51.354;6.740;2022-08-19T10:08:27;20.27;;;17.77;;
8480;SDS011;4277;51.354;6.740;2022-08-19T10:10:54;18.77;;;16.70;;
8480;SDS011;4277;51.354;6.740;2022-08-19T10:13:20;19.60;;;17.42;;
8480;SDS011;4277;51.354;6.740;2022-08-19T10:15:48;16.48;;;14.75;;
8480;SDS011;4277;51.354;6.740;2022-08-19T10:18:16;17.80;;;14.63;;
8480;SDS011;4277;51.354;6.740;2022-08-19T10:20:45;17.25;;;15.38;;
8480;SDS011;4277;51.354;6.740;2022-08-19T10:23:12;18.20;;;15.43;;
8480;SDS011;4277;51.354;6.740;2022-08-19T10:25:38;13.50;;;12.13;;
8480;SDS011;4277;51.354;6.740;2022-08-19T10:28:04;16.73;;;14.85;;
8480;SDS011;4277;51.354;6.740;2022-08-19T10:30:32;15.80;;;14.10;;
8480;SDS011;4277;51.354;6.740;2022-08-19T10:32:58;18.13;;;16.30;;
8480;SDS011;4277;51.354;6.740;2022-08-19T10:35:24;15.85;;;13.60;;
8480;SDS011;4277;51.354;6.740;2022-08-19T10:37:52;16.67;;;14.85;;
8480;SDS011;4277;51.354;6.740;2022-08-19T10:40:18;20.25;;;15.00;;
8480;SDS011;4277;51.354;6.740;2022-08-19T10:42:44;13.95;;;12.57;;
8480;SDS011;4277;51.354;6.740;2022-08-19T10:45:10;17.33;;;14.82;;
8480;SDS011;4277;51.354;6.740;2022-08-19T10:47:36;13.23;;;11.80;;
8480;SDS011;4277;51.354;6.740;2022-08-19T10:50:02;16.67;;;13.02;;
8480;SDS011;4277;51.354;6.740;2022-08-19T10:52:48;13.82;;;12.43;;
8480;SDS011;4277;51.354;6.740;2022-08-19T10:55:14;13.32;;;11.98;;
8480;SDS011;4277;51.354;6.740;2022-08-19T10:57:58;13.43;;;12.13;;
8480;SDS011;4277;51.354;6.740;2022-08-19T11:00:24;13.30;;;11.63;;
8480;SDS011;4277;51.354;6.740;2022-08-19T11:02:51;11.95;;;10.75;;
8480;SDS011;4277;51.354;6.740;2022-08-19T11:05:17;11.38;;;10.27;;
8480;SDS011;4277;51.354;6.740;2022-08-19T11:07:43;10.25;;;8.82;;
8480;SDS011;4277;51.354;6.740;2022-08-19T11:10:10;9.68;;;8.88;;
8480;SDS011;4277;51.354;6.740;2022-08-19T11:12:37;11.90;;;10.50;;
8480;SDS011;4277;51.354;6.740;2022-08-19T11:15:04;10.65;;;8.90;;
8480;SDS011;4277;51.354;6.740;2022-08-19T11:17:36;10.25;;;9.25;;
8480;SDS011;4277;51.354;6.740;2022-08-19T11:20:06;9.55;;;8.55;;
8480;SDS011;4277;51.354;6.740;2022-08-19T11:22:33;10.30;;;8.07;;
8480;SDS011;4277;51.354;6.740;2022-08-19T11:24:59;9.88;;;8.88;;
8480;SDS011;4277;51.354;6.740;2022-08-19T11:27:25;10.68;;;8.93;;
8480;SDS011;4277;51.354;6.740;2022-08-19T11:29:50;10.23;;;7.40;;
8480;SDS011;4277;51.354;6.740;2022-08-19T11:32:17;10.27;;;7.30;;
8480;SDS011;4277;51.354;6.740;2022-08-19T11:34:43;7.72;;;6.88;;
8480;SDS011;4277;51.354;6.740;2022-08-19T11:37:08;9.18;;;6.40;;
8480;SDS011;4277;51.354;6.740;2022-08-19T11:39:34;7.70;;;6.90;;
8480;SDS011;4277;51.354;6.740;2022-08-19T11:42:02;8.85;;;8.07;;
8480;SDS011;4277;51.354;6.740;2022-08-19T11:44:49;8.70;;;7.28;;
8480;SDS011;4277;51.354;6.740;2022-08-19T11:47:14;9.57;;;7.47;;
8480;SDS011;4277;51.354;6.740;2022-08-19T11:49:40;7.68;;;6.68;;
8480;SDS011;4277;51.354;6.740;2022-08-19T11:52:07;9.15;;;7.70;;
8480;SDS011;4277;51.354;6.740;2022-08-19T11:54:33;7.50;;;6.72;;
8480;SDS011;4277;51.354;6.740;2022-08-19T11:56:59;8.60;;;7.80;;
8480;SDS011;4277;51.354;6.740;2022-08-19T11:59:26;11.60;;;8.57;;
8480;SDS011;4277;51.354;6.740;2022-08-19T12:01:52;8.13;;;7.32;;
8480;SDS011;4277;51.354;6.740;2022-08-19T12:04:18;8.40;;;7.60;;
8480;SDS011;4277;51.354;6.740;2022-08-19T12:06:44;8.48;;;7.65;;
8480;SDS011;4277;51.354;6.740;2022-08-19T12:09:10;7.20;;;6.03;;
8480;SDS011;4277;51.354;6.740;2022-08-19T12:11:36;6.82;;;6.13;;
8480;SDS011;4277;51.354;6.740;2022-08-19T12:14:03;6.68;;;6.07;;
8480;SDS011;4277;51.354;6.740;2022-08-19T12:16:35;9.38;;;7.15;;
8480;SDS011;4277;51.354;6.740;2022-08-19T12:19:03;7.70;;;6.78;;
8480;SDS011;4277;51.354;6.740;2022-08-19T12:21:30;7.03;;;6.32;;
8480;SDS011;4277;51.354;6.740;2022-08-19T12:23:57;6.07;;;5.47;;
8480;SDS011;4277;51.354;6.740;2022-08-19T12:26:24;5.90;;;5.38;;
8480;SDS011;4277;51.354;6.740;2022-08-19T12:28:50;6.20;;;5.70;;
8480;SDS011;4277;51.354;6.740;2022-08-19T12:31:16;5.88;;;4.75;;
8480;SDS011;4277;51.354;6.740;2022-08-19T12:33:44;5.43;;;4.93;;
8480;SDS011;4277;51.354;6.740;2022-08-19T12:36:11;5.05;;;4.03;;
8480;SDS011;4277;51.354;6.740;2022-08-19T12:38:39;4.78;;;4.22;;
8480;SDS011;4277;51.354;6.740;2022-08-19T12:41:05;5.40;;;4.90;;
8480;SDS011;4277;51.354;6.740;2022-08-19T12:43:34;7.10;;;5.53;;
8480;SDS011;4277;51.354;6.740;2022-08-19T12:46:00;7.93;;;6.55;;
8480;SDS011;4277;51.354;6.740;2022-08-19T12:48:26;6.22;;;5.47;;
8480;SDS011;4277;51.354;6.740;2022-08-19T12:50:52;6.45;;;5.60;;
8480;SDS011;4277;51.354;6.740;2022-08-19T12:53:19;7.22;;;5.40;;
8480;SDS011;4277;51.354;6.740;2022-08-19T12:55:44;7.50;;;5.38;;
8480;SDS011;4277;51.354;6.740;2022-08-19T12:58:10;5.60;;;4.40;;
8480;SDS011;4277;51.354;6.740;2022-08-19T13:00:37;5.20;;;4.75;;
8480;SDS011;4277;51.354;6.740;2022-08-19T13:03:03;5.32;;;4.90;;
8480;SDS011;4277;51.354;6.740;2022-08-19T13:05:29;4.43;;;3.92;;
8480;SDS011;4277;51.354;6.740;2022-08-19T13:07:58;6.05;;;3.78;;
8480;SDS011;4277;51.354;6.740;2022-08-19T13:10:26;3.55;;;3.25;;
8480;SDS011;4277;51.354;6.740;2022-08-19T13:13:00;3.72;;;3.28;;
8480;SDS011;4277;51.354;6.740;2022-08-19T13:15:28;4.40;;;3.40;;
8480;SDS011;4277;51.354;6.740;2022-08-19T13:17:56;4.30;;;3.90;;
8480;SDS011;4277;51.354;6.740;2022-08-19T13:20:23;5.55;;;4.70;;
8480;SDS011;4277;51.354;6.740;2022-08-19T13:22:49;6.15;;;4.35;;
8480;SDS011;4277;51.354;6.740;2022-08-19T13:25:16;4.60;;;4.20;;
8480;SDS011;4277;51.354;6.740;2022-08-19T13:27:44;5.13;;;4.10;;
8480;SDS011;4277;51.354;6.740;2022-08-19T13:30:11;5.53;;;3.67;;
8480;SDS011;4277;51.354;6.740;2022-08-19T13:32:56;5.05;;;3.47;;
8480;SDS011;4277;51.354;6.740;2022-08-19T13:38:15;4.68;;;4.28;;
8480;SDS011;4277;51.354;6.740;2022-08-19T13:40:42;5.43;;;4.47;;
8480;SDS011;4277;51.354;6.740;2022-08-19T13:43:08;6.22;;;4.45;;
8480;SDS011;4277;51.354;6.740;2022-08-19T13:45:34;5.38;;;3.92;;
8480;SDS011;4277;51.354;6.740;2022-08-19T13:48:01;7.55;;;4.15;;
8480;SDS011;4277;51.354;6.740;2022-08-19T13:50:33;5.85;;;4.28;;
8480;SDS011;4277;51.354;6.740;2022-08-19T13:53:07;4.28;;;3.88;;
8480;SDS011;4277;51.354;6.740;2022-08-19T13:55:34;5.28;;;4.00;;
8480;SDS011;4277;51.354;6.740;2022-08-19T13:58:02;3.90;;;3.50;;
8480;SDS011;4277;51.354;6.740;2022-08-19T14:00:30;4.65;;;3.92;;
8480;SDS011;4277;51.354;6.740;2022-08-19T14:02:58;4.50;;;4.10;;
8480;SDS011;4277;51.354;6.740;2022-08-19T14:05:25;5.35;;;3.95;;
8480;SDS011;4277;51.354;6.740;2022-08-19T14:07:52;4.65;;;3.75;;
8480;SDS011;4277;51.354;6.740;2022-08-19T14:10:18;7.40;;;4.45;;
8480;SDS011;4277;51.354;6.740;2022-08-19T14:12:45;4.75;;;4.18;;
8480;SDS011;4277;51.354;6.740;2022-08-19T14:15:11;5.57;;;4.38;;
8480;SDS011;4277;51.354;6.740;2022-08-19T14:17:38;5.25;;;3.97;;
8480;SDS011;4277;51.354;6.740;2022-08-19T14:20:07;5.57;;;4.18;;
8480;SDS011;4277;51.354;6.740;2022-08-19T14:22:38;6.55;;;4.07;;
8480;SDS011;4277;51.354;6.740;2022-08-19T14:25:08;5.45;;;4.43;;
8480;SDS011;4277;51.354;6.740;2022-08-19T14:27:37;11.07;;;4.25;;
8480;SDS011;4277;51.354;6.740;2022-08-19T14:30:04;5.30;;;3.65;;
8480;SDS011;4277;51.354;6.740;2022-08-19T14:32:31;5.55;;;4.10;;
8480;SDS011;4277;51.354;6.740;2022-08-19T14:34:57;4.90;;;3.70;;
8480;SDS011;4277;51.354;6.740;2022-08-19T14:37:23;7.03;;;3.83;;
8480;SDS011;4277;51.354;6.740;2022-08-19T14:39:49;7.10;;;3.92;;
8480;SDS011;4277;51.354;6.740;2022-08-19T14:42:15;8.57;;;4.28;;
8480;SDS011;4277;51.354;6.740;2022-08-19T14:44:41;8.68;;;3.47;;
8480;SDS011;4277;51.354;6.740;2022-08-19T14:47:07;5.03;;;3.35;;
8480;SDS011;4277;51.354;6.740;2022-08-19T14:49:33;4.43;;;2.97;;
8480;SDS011;4277;51.354;6.740;2022-08-19T14:52:00;4.32;;;3.00;;
8480;SDS011;4277;51.354;6.740;2022-08-19T14:54:30;3.65;;;3.30;;
8480;SDS011;4277;51.354;6.740;2022-08-19T14:56:55;4.50;;;2.90;;
8480;SDS011;4277;51.354;6.740;2022-08-19T14:59:21;4.78;;;3.00;;
8480;SDS011;4277;51.354;6.740;2022-08-19T15:01:47;5.25;;;2.85;;
8480;SDS011;4277;51.354;6.740;2022-08-19T15:04:12;5.07;;;3.05;;
8480;SDS011;4277;51.354;6.740;2022-08-19T15:06:38;3.95;;;2.63;;
8480;SDS011;4277;51.354;6.740;2022-08-19T15:09:04;3.80;;;3.20;;
8480;SDS011;4277;51.354;6.740;2022-08-19T15:11:30;5.20;;;3.40;;
8480;SDS011;4277;51.354;6.740;2022-08-19T15:13:57;3.15;;;2.85;;